Home > Products > Valid Products > TAF

000
FTUS46 KHNX 212320
TAFFAT
TAF
KFAT 212320Z 2200/2224 31008KT P6SM SCT030 BKN200
      TEMPO 2200/2203 BKN030
     FM220300 VRB03KT 4SM BR BKN020
     FM220600 VRB03KT 1SM BR BKN007
     FM220800 VRB03KT 1/4SM FG VV001
     FM221800 VRB03KT 1SM BR OVC005=



000
FTUS46 KHNX 212320
TAFMCE
TAF
KMCE 212320Z 2200/2224 32008KT P6SM SCT020 BKN200
      TEMPO 2200/2203 BKN020
     FM220300 VRB03KT 4SM BR BKN020
     FM220600 VRB03KT 1SM BR BKN007
     FM220800 VRB03KT 1/4SM FG VV001
     FM221800 VRB03KT 1SM BR OVC005=



000
FTUS46 KHNX 212320
TAFBFL
TAF
KBFL 212320Z 2200/2224 VRB04KT P6SM BKN040
     FM220300 VRB03KT 4SM BR BKN020
     FM220600 VRB03KT 2SM BR BKN007
     FM220800 VRB03KT 1SM BR OVC005
     FM221800 VRB03KT 2SM BR SCT005 BKN015=



000
FTUS46 KHNX 212150 AAA
TAFFAT
TAF AMD
KFAT 212150Z 2122/2218 VRB04KT 5SM BR BKN030
     FM220800 VRB03KT 1/4SM FG VV001=



000
FTUS46 KHNX 212150 AAA
TAFFAT
TAF AMD
KFAT 212150Z 2122/2218 VRB04KT 5SM BR BKN030
     FM220800 VRB03KT 1/4SM FG VV001=



000
FTUS46 KHNX 212015 AAB
TAFMCE
TAF AMD
KMCE 212015Z 2120/2218 32006KT 4SM BR BKN030
     FM220600 VRB03KT 1/4SM FG VV001=



000
FTUS46 KHNX 212014 AAA
TAFBFL
TAF AMD
KBFL 212014Z 2120/2218 VRB04KT 4SM BR SCT007 BKN040
     FM221200 VRB03KT 1/4SM FG OVC001=



000
FTUS46 KHNX 211913 AAA
TAFMCE
TAF AMD
KMCE 211913Z 2119/2218 VRB03KT 1 1/2SM BR OVC003
      TEMPO 2119/2121 3SM BR OVC006
     FM212100 32006KT 4SM BR BKN007
     FM220600 VRB03KT 1/4SM FG VV001=



000
FTUS46 KHNX 211725
TAFMCE
TAF
KMCE 211725Z 2118/2218 VRB03KT 1SM BR OVC002
      TEMPO 2118/2119 3SM BR OVC006
     FM211900 32006KT 4SM BR BKN007
     FM220600 VRB03KT 1/4SM FG VV001=



000
FTUS46 KHNX 211725
TAFFAT
TAF
KFAT 211725Z 2118/2218 VRB03KT 1SM BR OVC002
      TEMPO 2118/2120 3SM BR OVC006
     FM212000 VRB04KT 4SM BR BKN007
     FM220800 VRB03KT 1/4SM FG VV001=



000
FTUS46 KHNX 211725
TAFBFL
TAF
KBFL 211725Z 2118/2218 VRB03KT 1SM BR OVC002
      TEMPO 2118/2120 3SM BR OVC006
     FM212000 VRB04KT 4SM BR BKN007
     FM221200 VRB03KT 1/4SM FG OVC001=



000
FTUS46 KHNX 211120
TAFMCE
TAF
KMCE 211120Z 2112/2212 VRB03KT 1/4SM FG OVC001
     FM211800 VRB03KT 5SM BR BKN100
     FM221000 VRB03KT 1/4SM FG OVC001=



000
FTUS46 KHNX 211120
TAFBFL
TAF
KBFL 211120Z 2112/2212 VRB03KT 1/4SM FG OVC001
     FM211800 VRB03KT 2SM BR SCT001
     FM211900 VRB03KT 5SM BR BKN100=



000
FTUS46 KHNX 211120
TAFFAT
TAF
KFAT 211120Z 2112/2212 VRB03KT 1/4SM FG OVC001
     FM211900 VRB04KT 5SM BR BKN100
     FM220800 VRB03KT 1/4SM FG OVC001=



000
FTUS46 KHNX 211022 AAA
TAFMCE
TAF AMD
KMCE 211022Z 2110/2206 VRB03KT 1SM BR SCT001
     FM211200 VRB03KT 1/4SM FG OVC001
     FM211800 VRB03KT 5SM BR BKN100=



000
FTUS46 KHNX 211022 AAA
TAFMCE
TAF AMD
KMCE 211022Z 2110/2206 VRB03KT 1SM BR SCT001
     FM211200 VRB03KT 1/4SM FG OVC001
     FM211800 VRB03KT 5SM BR BKN100=



000
FTUS46 KHNX 211018 AAA
TAFFAT
TAF AMD
KFAT 211018Z 2110/2206 VRB03KT 1/4SM FG OVC001
     FM211800 VRB03KT 2SM BR SCT001 BKN050
     FM211900 VRB04KT 5SM BR BKN100=



000
FTUS46 KHNX 211018 AAA
TAFFAT
TAF AMD
KFAT 211018Z 2110/2206 VRB03KT 1/4SM FG OVC001
     FM211800 VRB03KT 2SM BR SCT001 BKN050
     FM211900 VRB04KT 5SM BR BKN100=



000
FTUS46 KHNX 210529
TAFFAT
TAF
KFAT 210529Z 2106/2206 VRB04KT P6SM SCT120
      TEMPO 2107/2110 5SM BR
     FM211000 VRB03KT 5SM BR SCT015 SCT050
      TEMPO 2111/2115 2SM BR BKN015
     FM211900 VRB03KT 5SM BR SCT035 BKN050=



000
FTUS46 KHNX 210529
TAFMCE
TAF
KMCE 210529Z 2106/2206 VRB03KT 5SM BR FEW060 SCT090 BKN120
     FM210800 VRB03KT 3SM BR SCT005 BKN015
      TEMPO 2109/2112 2SM BR BKN005
     FM211200 00000KT 2SM BR BKN005
      TEMPO 2112/2116 1/2SM FG VV003
     FM212000 30006KT 3SM BR SCT015 BKN040
     FM220300 VRB03KT 2SM BR SCT005 BKN015=



000
FTUS46 KHNX 210529
TAFBFL
TAF
KBFL 210529Z 2106/2206 VRB03KT P6SM BKN035 BKN080
     FM210800 VRB03KT 5SM BR SCT030 BKN050
      TEMPO 2110/2114 2SM BR BKN030=



000
FTUS46 KHNX 210319 AAA
TAFMCE
TAF AMD
KMCE 210319Z 2103/2124 31004KT P6SM BKN100
     FM210600 VRB03KT 3SM BR SCT005 BKN015
      TEMPO 2108/2112 2SM BR BKN005
     FM211200 00000KT 2SM BR BKN005
      TEMPO 2112/2116 1/2SM FG VV003
     FM212000 30006KT 3SM BR SCT015 BKN040=



000
FTUS46 KHNX 210319 AAA
TAFMCE
TAF AMD
KMCE 210319Z 2103/2124 31004KT P6SM BKN100
     FM210600 VRB03KT 3SM BR SCT005 BKN015
      TEMPO 2108/2112 2SM BR BKN005
     FM211200 00000KT 2SM BR BKN005
      TEMPO 2112/2116 1/2SM FG VV003
     FM212000 30006KT 3SM BR SCT015 BKN040=



000
FTUS46 KHNX 202330
TAFMCE
TAF
KMCE 202330Z 2100/2124 10007KT 4SM -SHRA BR SCT020 BKN040
     FM210600 VRB03KT 3SM BR SCT005 BKN015
      TEMPO 2108/2112 2SM BR BKN005
     FM211200 00000KT 2SM BR BKN005
      TEMPO 2112/2116 1/2SM FG VV003
     FM212000 30006KT 3SM BR SCT015 BKN040=



000
FTUS46 KHNX 202330
TAFFAT
TAF
KFAT 202330Z 2100/2124 09005KT P6SM BKN050 OVC080
      TEMPO 2105/2109 5SM BR BKN035
     FM210900 VRB03KT 5SM BR SCT015 BKN035
      TEMPO 2111/2115 2SM BR BKN015
     FM211900 VRB03KT 5SM BR SCT035 BKN050=



000
FTUS46 KHNX 202330
TAFBFL
TAF
KBFL 202330Z 2100/2124 09005KT P6SM SCT050 BKN080
     FM210800 VRB03KT 5SM BR SCT030 BKN050
      TEMPO 2110/2114 2SM BR BKN030=



000
FTUS46 KHNX 201730
TAFMCE
TAF
KMCE 201730Z 2018/2118 10007KT 4SM BR SCT015 BKN025
      TEMPO 2018/2022 -RA BKN015
     FM210300 14007KT 3SM -SHRA BR BKN015 OVC025
     FM210600 VRB03KT 3SM BR SCT005 BKN015
      TEMPO 2108/2112 2SM BR BKN005
     FM211200 00000KT 2SM BR BKN005
      TEMPO 2112/2116 1/2SM FG VV003=



000
FTUS46 KHNX 201730
TAFBFL
TAF
KBFL 201730Z 2018/2118 09005KT P6SM SCT050 BKN080
     FM202200 29005KT P6SM BKN050
     FM210400 VRB03KT P6SM SCT030 BKN050
     FM210800 VRB03KT 5SM BR SCT015 BKN030
      TEMPO 2110/2114 2SM BR BKN015=



000
FTUS46 KHNX 201730
TAFFAT
TAF
KFAT 201730Z 2018/2118 09005KT P6SM BKN050 OVC080
     FM210200 VRB03KT P6SM SCT035 BKN050
      TEMPO 2104/2108 5SM BR BKN035
     FM210800 VRB03KT 5SM BR SCT015 BKN035
      TEMPO 2111/2115 2SM BR BKN015=



000
FTUS46 KHNX 201557 AAB
TAFMCE
TAF AMD
KMCE 201557Z 2016/2112 10007KT 4SM BR OVC020
      TEMPO 2016/2019 2SM -RA BR BKN015
     FM201900 09005KT 4SM BR SCT010 OVC020
      TEMPO 2019/2023 1 1/2SM -RA BR BKN010
     FM210300 VRB03KT 3SM BR SCT005 BKN015
      TEMPO 2108/2112 1SM BR BKN005=



000
FTUS46 KHNX 201534 AAA
TAFMCE
TAF AMD
KMCE 201534Z 2016/2112 09005KT P6SM SCT025 BKN035 OVC045
      TEMPO 2016/2019 4SM -RA BR BKN025
     FM201900 09005KT P6SM SCT015 BKN035
      TEMPO 2019/2023 4SM BR BKN015
     FM210300 VRB03KT 3SM BR SCT005 BKN070
      TEMPO 2108/2112 1SM BR BKN005=



000
FTUS46 KHNX 201130
TAFFAT
TAF
KFAT 201130Z 2012/2112 09005KT P6SM SCT050 OVC090
     FM201700 09005KT P6SM BKN050 OVC090
     FM210200 VRB03KT P6SM SCT035 BKN050
      TEMPO 2102/2106 5SM BR BKN035
     FM210600 VRB03KT 5SM BR SCT015 BKN035
      TEMPO 2108/2112 3SM BR BKN015=



000
FTUS46 KHNX 201130
TAFMCE
TAF
KMCE 201130Z 2012/2112 10005KT P6SM VCSH SCT030 BKN045 OVC060
     FM201500 09005KT P6SM BKN035 OVC045
     FM201800 09005KT 4SM BR SCT015 BKN035
      TEMPO 2018/2022 3SM BR BKN015
     FM210300 VRB03KT 3SM BR SCT005 BKN070
      TEMPO 2108/2112 1SM BR BKN005=



000
FTUS46 KHNX 201130
TAFBFL
TAF
KBFL 201130Z 2012/2112 09005KT P6SM SCT050 BKN080
     FM201700 VRB03KT P6SM BKN050
     FM202100 29005KT P6SM BKN050
     FM210200 VRB03KT P6SM SCT035 BKN050
     FM210800 VRB03KT 5SM BR SCT015 BKN035
      TEMPO 2108/2112 3SM BR BKN015=



000
FTUS46 KHNX 201056 AAA
TAFBFL
TAF AMD
KBFL 201056Z 2011/2106 VRB03KT P6SM SCT120 BKN200
     FM201400 VRB03KT P6SM SCT050 BKN120
     FM201900 29005KT P6SM BKN050=



000
FTUS46 KHNX 200917 AAB
TAFMCE
TAF AMD
KMCE 200917Z 2009/2106 VRB04KT P6SM VCSH BKN045 OVC070
     FM201300 13003KT P6SM BKN035 OVC050
      TEMPO 2013/2017 4SM -RA BR BKN030
     FM202000 16004KT 4SM HZ BKN030=



000
FTUS46 KHNX 200913 AAA
TAFFAT
TAF AMD
KFAT 200913Z 2009/2106 10005KT P6SM OVC100
     FM201200 13004KT P6SM SCT050 OVC080
     FM201500 14004KT P6SM BKN050
     FM210200 VRB03KT P6SM SCT035 BKN050
      TEMPO 2102/2106 5SM BR BKN035=



000
FTUS46 KHNX 200714 AAA
TAFMCE
TAF AMD
KMCE 200714Z 2007/2106 13004KT P6SM SCT040 BKN050
     FM200900 VRB04KT 4SM BR BKN025
     FM201300 13003KT 2SM BR OVC025
     FM202000 16004KT 4SM HZ BKN030=



000
FTUS46 KHNX 200523
TAFBFL
TAF
KBFL 200523Z 2006/2106 09002KT P6SM BKN040 OVC050
     FM201000 11003KT 4SM BR BKN040
     FM201900 29004KT 4SM HZ BKN050=



000
FTUS46 KHNX 200523
TAFMCE
TAF
KMCE 200523Z 2006/2106 13007KT P6SM SCT040 BKN050
     FM200800 VRB04KT 3SM BR BKN025
     FM201300 13003KT 2SM BR OVC025
     FM202000 16004KT 4SM HZ BKN030=



000
FTUS46 KHNX 200523
TAFFAT
TAF
KFAT 200523Z 2006/2106 VRB04KT P6SM BKN060
     FM200900 VRB03KT 4SM BR BKN050
     FM201400 VRB02KT 2SM BR BKN040
     FM201800 13004KT 4SM HZ BKN050=



000
FTUS46 KHNX 192320
TAFMCE
TAF
KMCE 192320Z 2000/2024 16009KT P6SM -RA SCT025 OVC040
      TEMPO 2001/2003 5SM -SHRA OVC025
     FM200500 13007KT 5SM BR BKN040
     FM200800 VRB04KT 3SM BR BKN025
     FM201300 13003KT 2SM BR OVC025
     FM202000 16004KT 4SM HZ BKN030=



000
FTUS46 KHNX 192320
TAFFAT
TAF
KFAT 192320Z 2000/2024 17005KT P6SM BKN100
     FM200300 VRB04KT P6SM BKN060
      TEMPO 2003/2006 5SM -RA OVC050
     FM200900 VRB03KT 4SM BR BKN050
     FM201400 VRB02KT 2SM BR BKN040
     FM201800 13004KT 4SM HZ BKN050=



000
FTUS46 KHNX 192320
TAFBFL
TAF
KBFL 192320Z 2000/2024 VRB04KT P6SM OVC150
     FM200600 09002KT 4SM HZ BR BKN100
     FM201200 11003KT 2SM BR BKN040
     FM201900 29004KT 4SM HZ BKN050=



000
FTUS46 KHNX 191731
TAFFAT
TAF
KFAT 191731Z 1918/2018 13005KT P6SM BKN080
     FM192300 13007KT P6SM -RA OVC060
     FM200200 VRB04KT P6SM VCSH BKN040
     FM200900 VRB03KT 4SM BR BKN025
      TEMPO 2009/2012 2SM BR BKN007
     FM201400 VRB02KT 2SM BR BKN020=



000
FTUS46 KHNX 191731
TAFBFL
TAF
KBFL 191731Z 1918/2018 14005KT P6SM BKN150
     FM192100 32006KT P6SM BKN100
     FM192300 34005KT P6SM SCT050 BKN080
     FM200300 VRB04KT P6SM BKN050
      TEMPO 2008/2012 5SM BR BKN030
     FM201400 10004KT 2SM BR BKN030=



000
FTUS46 KHNX 191731
TAFMCE
TAF
KMCE 191731Z 1918/2018 12006KT P6SM OVC080
     FM191900 13007KT P6SM -RA OVC060
      TEMPO 1920/1924 4SM RA BR BKN040
     FM200000 14008KT P6SM VCSH BKN040
     FM200900 VRB04KT 3SM BR BKN025
      TEMPO 2009/2012 1 1/2SM BR BKN005
     FM201500 07003KT 2SM BR OVC025 PROB30 2015/2018 1 1/2SM -RA
      OVC020=



000
FTUS46 KHNX 191148
TAFBFL
TAF
KBFL 191148Z 1912/2012 11005KT P6SM BKN150
     FM192100 32006KT P6SM BKN100
     FM192300 34005KT P6SM SCT050 BKN080
     FM200300 VRB04KT P6SM BKN050
      TEMPO 2008/2012 5SM BR BKN030=



000
FTUS46 KHNX 191148
TAFFAT
TAF
KFAT 191148Z 1912/2012 VRB03KT P6SM BKN130
     FM192000 13005KT P6SM BKN080
     FM192300 13007KT P6SM -RA OVC060
     FM200200 VRB04KT P6SM VCSH BKN040
     FM200900 VRB03KT 4SM BR BKN025
      TEMPO 2009/2012 2SM BR BKN007=



000
FTUS46 KHNX 191148
TAFMCE
TAF
KMCE 191148Z 1912/2012 10004KT P6SM BKN100
     FM191700 12006KT P6SM OVC080
     FM191900 13007KT P6SM -RA OVC060
      TEMPO 1920/1924 4SM RA BR BKN040
     FM200000 14008KT P6SM VCSH BKN040
     FM200900 VRB04KT 3SM BR BKN025
      TEMPO 2009/2012 1 1/2SM BR BKN005=



000
FTUS46 KHNX 190535
TAFBFL
TAF
KBFL 190535Z 1906/2006 07004KT P6SM SCT200
     FM191300 11003KT 3SM BR SCT100 BKN200
     FM192300 28003KT 4SM HZ OVC050=



000
FTUS46 KHNX 190535
TAFFAT
TAF
KFAT 190535Z 1906/2006 00000KT P6SM SCT200
     FM191100 VRB03KT 3SM BR SCT020 BKN250
      TEMPO 1913/1917 2SM BR
     FM192000 13005KT 4SM HZ BR OVC060 PROB30 1921/2003 4SM -RA
      OVC040=



000
FTUS46 KHNX 190535
TAFMCE
TAF
KMCE 190535Z 1906/2006 10004KT P6SM BKN200
      TEMPO 1910/1913 2SM BR
     FM191300 10004KT 1SM BR SCT006 BKN120
      TEMPO 1917/1919 3SM BR
     FM191900 13007KT 4SM BR OVC060
      TEMPO 1920/1923 -RA OVC040
     FM192300 14008KT 4SM -SHRA BR BKN040=



    US Dept of Commerce
    National Oceanic and Atmospheric Administration
    National Weather Service
    1325 East West Highway
    Silver Spring, MD 20910
    Page Author: NWS Internet Services Team
Disclaimer
Information Quality
Credits
Glossary
Privacy Policy
Freedom of Information Act (FOIA)
About Us
Career Opportunities